ADDS METAR Data INFO
IDs: Format: Raw Decoded Include TAF

Data at: 0834 UTC 21 Oct 2017

METAR for:KINF (Inverness Arpt, FL, US)
Text:KINF 210815Z AUTO 00000KT 10SM SCT027 19/19 A3010 RMK AO2
Temperature: 19.0°C ( 66°F)
Dewpoint: 19.0°C ( 66°F) [RH = 100%]
Pressure (altimeter):30.10 inches Hg (1019.4 mb)
Winds:calm
Visibility:10 or more sm (16+ km)
Ceiling:at least 12,000 feet AGL
Clouds: scattered clouds at 2700 feet AGL
QC Flag:automated observation with no human augmentation